Terminal Aerodrome Forecast
Issued by NWS

Home | Current Version | Previous Version | Graphics & Text | Print | Product List | Glossary On
Versions: 1 2 3 4 5 6 7 8 9 10 11 12 13 14
000
FTUS41 KCLE 211731
TAFFDY
TAF
KFDY 211731Z 2118/2218 22020G26KT P6SM BKN250
     FM212100 24017G27KT P6SM BKN060
      TEMPO 2121/2124 6SM -SHRA OVC030
     FM220000 27012G22KT P6SM VCSH OVC050
      TEMPO 2200/2204 OVC020
     FM220400 30012G22KT P6SM BKN050
     FM221400 30010KT P6SM SCT250=

USA.gov is the U.S. government's official web portal to all federal, state and local government web resources and services.